sensor_id;sensor_type;location;lat;lon;timestamp;pressure;altitude;pressure_sealevel;temperature;humidity
7337;BME280;54510;42.016;23.098;2023-02-20T00:00:25;-21438.31;;;11.04;nan
7337;BME280;54510;42.016;23.098;2023-02-20T00:02:51;-21439.44;;;11.08;nan
7337;BME280;54510;42.016;23.098;2023-02-20T00:05:16;-21447.06;;;11.36;nan
7337;BME280;54510;42.016;23.098;2023-02-20T00:07:42;-21457.59;;;11.75;nan
7337;BME280;54510;42.016;23.098;2023-02-20T00:10:08;-21461.75;;;11.90;nan
7337;BME280;54510;42.016;23.098;2023-02-20T00:12:34;-21464.25;;;11.99;nan
7337;BME280;54510;42.016;23.098;2023-02-20T00:14:59;-21466.75;;;12.08;nan
7337;BME280;54510;42.016;23.098;2023-02-20T00:17:24;-21468.41;;;12.14;nan
7337;BME280;54510;42.016;23.098;2023-02-20T00:19:50;-21469.38;;;12.18;nan
7337;BME280;54510;42.016;23.098;2023-02-20T00:22:15;-21472.03;;;12.27;nan
7337;BME280;54510;42.016;23.098;2023-02-20T00:24:41;-21473.53;;;12.33;nan
7337;BME280;54510;42.016;23.098;2023-02-20T00:27:07;-21470.34;;;12.21;nan
7337;BME280;54510;42.016;23.098;2023-02-20T00:29:32;-21471.47;;;12.25;nan
7337;BME280;54510;42.016;23.098;2023-02-20T00:31:58;-21471.19;;;12.24;nan
7337;BME280;54510;42.016;23.098;2023-02-20T00:34:26;-21473.13;;;12.32;nan
7337;BME280;54510;42.016;23.098;2023-02-20T00:36:51;-21472.03;;;12.27;nan
7337;BME280;54510;42.016;23.098;2023-02-20T00:39:17;-21474.66;;;12.37;nan
7337;BME280;54510;42.016;23.098;2023-02-20T00:41:42;-21476.03;;;12.42;nan
7337;BME280;54510;42.016;23.098;2023-02-20T00:44:08;-21475.91;;;12.42;nan
7337;BME280;54510;42.016;23.098;2023-02-20T00:46:33;-21473.41;;;12.33;nan
7337;BME280;54510;42.016;23.098;2023-02-20T00:48:58;-21476.88;;;12.45;nan
7337;BME280;54510;42.016;23.098;2023-02-20T00:51:24;-21474.22;;;12.36;nan
7337;BME280;54510;42.016;23.098;2023-02-20T00:53:50;-21470.09;;;12.20;nan
7337;BME280;54510;42.016;23.098;2023-02-20T00:56:15;-21473.25;;;12.32;nan
7337;BME280;54510;42.016;23.098;2023-02-20T00:58:41;-21474.78;;;12.38;nan
7337;BME280;54510;42.016;23.098;2023-02-20T01:01:06;-21470.63;;;12.22;nan
7337;BME280;54510;42.016;23.098;2023-02-20T01:03:32;-21471.47;;;12.25;nan
7337;BME280;54510;42.016;23.098;2023-02-20T01:05:57;-21472.28;;;12.28;nan
7337;BME280;54510;42.016;23.098;2023-02-20T01:08:23;-21473.97;;;12.35;nan
7337;BME280;54510;42.016;23.098;2023-02-20T01:10:49;-21474.22;;;12.36;nan
7337;BME280;54510;42.016;23.098;2023-02-20T01:13:14;-21474.50;;;12.37;nan
7337;BME280;54510;42.016;23.098;2023-02-20T01:15:40;-21474.94;;;12.38;nan
7337;BME280;54510;42.016;23.098;2023-02-20T01:18:05;-21470.22;;;12.21;nan
7337;BME280;54510;42.016;23.098;2023-02-20T01:20:31;-21468.41;;;12.14;nan
7337;BME280;54510;42.016;23.098;2023-02-20T01:22:57;-21467.88;;;12.12;nan
7337;BME280;54510;42.016;23.098;2023-02-20T01:25:23;-21468.28;;;12.14;nan
7337;BME280;54510;42.016;23.098;2023-02-20T01:27:48;-21468.97;;;12.16;nan
7337;BME280;54510;42.016;23.098;2023-02-20T01:30:14;-21468.84;;;12.16;nan
7337;BME280;54510;42.016;23.098;2023-02-20T01:32:40;-21467.03;;;12.09;nan
7337;BME280;54510;42.016;23.098;2023-02-20T01:35:05;-21465.38;;;12.03;nan
7337;BME280;54510;42.016;23.098;2023-02-20T01:37:31;-21463.84;;;11.98;nan
7337;BME280;54510;42.016;23.098;2023-02-20T01:39:57;-21458.84;;;11.79;nan
7337;BME280;54510;42.016;23.098;2023-02-20T01:42:24;-21449.41;;;11.45;nan
7337;BME280;54510;42.016;23.098;2023-02-20T01:44:50;-21440.13;;;11.11;nan
7337;BME280;54510;42.016;23.098;2023-02-20T01:47:19;-21442.06;;;11.18;nan
7337;BME280;54510;42.016;23.098;2023-02-20T01:50:00;-21439.03;;;11.07;nan
7337;BME280;54510;42.016;23.098;2023-02-20T01:52:33;-21438.31;;;11.04;nan
7337;BME280;54510;42.016;23.098;2023-02-20T01:55:12;-21439.56;;;11.09;nan
7337;BME280;54510;42.016;23.098;2023-02-20T01:57:41;-21437.50;;;11.01;nan
7337;BME280;54510;42.016;23.098;2023-02-20T02:00:14;-21437.50;;;11.01;nan
7337;BME280;54510;42.016;23.098;2023-02-20T02:02:44;-21441.09;;;11.15;nan
7337;BME280;54510;42.016;23.098;2023-02-20T02:05:11;-21437.78;;;11.02;nan
7337;BME280;54510;42.016;23.098;2023-02-20T02:07:37;-21434.31;;;10.90;nan
7337;BME280;54510;42.016;23.098;2023-02-20T02:10:06;-21435.13;;;10.93;nan
7337;BME280;54510;42.016;23.098;2023-02-20T02:12:32;-21435.41;;;10.94;nan
7337;BME280;54510;42.016;23.098;2023-02-20T02:14:58;-21434.72;;;10.91;nan
7337;BME280;54510;42.016;23.098;2023-02-20T02:18:07;-21434.59;;;10.91;nan
7337;BME280;54510;42.016;23.098;2023-02-20T02:42:20;-21413.06;;;10.12;nan
7337;BME280;54510;42.016;23.098;2023-02-20T02:45:17;-21411.66;;;10.07;nan
7337;BME280;54510;42.016;23.098;2023-02-20T02:47:55;-21410.97;;;10.05;nan
7337;BME280;54510;42.016;23.098;2023-02-20T02:50:31;-21413.06;;;10.12;nan
7337;BME280;54510;42.016;23.098;2023-02-20T02:52:59;-21415.41;;;10.21;nan
7337;BME280;54510;42.016;23.098;2023-02-20T02:55:27;-21417.38;;;10.28;nan
7337;BME280;54510;42.016;23.098;2023-02-20T02:57:53;-21413.19;;;10.13;nan
7337;BME280;54510;42.016;23.098;2023-02-20T03:00:24;-21413.19;;;10.13;nan
7337;BME280;54510;42.016;23.098;2023-02-20T03:02:57;-21415.00;;;10.19;nan
7337;BME280;54510;42.016;23.098;2023-02-20T03:05:32;-21413.19;;;10.13;nan
7337;BME280;54510;42.016;23.098;2023-02-20T03:08:07;-21411.09;;;10.05;nan
7337;BME280;54510;42.016;23.098;2023-02-20T03:10:39;-21417.50;;;10.28;nan
7337;BME280;54510;42.016;23.098;2023-02-20T03:13:09;-21417.78;;;10.29;nan
7337;BME280;54510;42.016;23.098;2023-02-20T03:15:46;-21412.63;;;10.11;nan
7337;BME280;54510;42.016;23.098;2023-02-20T03:18:32;-21412.38;;;10.10;nan
7337;BME280;54510;42.016;23.098;2023-02-20T03:21:04;-21414.16;;;10.16;nan
7337;BME280;54510;42.016;23.098;2023-02-20T03:23:45;-21417.09;;;10.27;nan
7337;BME280;54510;42.016;23.098;2023-02-20T03:26:16;-21419.03;;;10.34;nan
7337;BME280;54510;42.016;23.098;2023-02-20T03:28:47;-21408.47;;;9.96;nan
7337;BME280;54510;42.016;23.098;2023-02-20T03:31:19;-21411.09;;;10.05;nan
7337;BME280;54510;42.016;23.098;2023-02-20T03:33:54;-21412.63;;;10.11;nan
7337;BME280;54510;42.016;23.098;2023-02-20T03:36:48;-21413.19;;;10.13;nan
7337;BME280;54510;42.016;23.098;2023-02-20T03:39:36;-21418.47;;;10.32;nan
7337;BME280;54510;42.016;23.098;2023-02-20T03:42:24;-21415.16;;;10.20;nan
7337;BME280;54510;42.016;23.098;2023-02-20T03:45:10;-21418.75;;;10.33;nan
7337;BME280;54510;42.016;23.098;2023-02-20T03:47:40;-21417.94;;;10.30;nan
7337;BME280;54510;42.016;23.098;2023-02-20T03:50:09;-21415.41;;;10.21;nan
7337;BME280;54510;42.016;23.098;2023-02-20T03:52:55;-21416.94;;;10.26;nan
7337;BME280;54510;42.016;23.098;2023-02-20T03:55:21;-21421.13;;;10.42;nan
7337;BME280;54510;42.016;23.098;2023-02-20T03:57:51;-21421.25;;;10.42;nan
7337;BME280;54510;42.016;23.098;2023-02-20T04:00:29;-21430.28;;;10.75;nan
7337;BME280;54510;42.016;23.098;2023-02-20T04:02:59;-21435.00;;;10.92;nan
7337;BME280;54510;42.016;23.098;2023-02-20T04:05:30;-21434.44;;;10.90;nan
7337;BME280;54510;42.016;23.098;2023-02-20T04:08:01;-21437.78;;;11.02;nan
7337;BME280;54510;42.016;23.098;2023-02-20T04:10:33;-21442.34;;;11.19;nan
7337;BME280;54510;42.016;23.098;2023-02-20T04:13:01;-21444.44;;;11.27;nan
7337;BME280;54510;42.016;23.098;2023-02-20T04:15:28;-21447.34;;;11.37;nan
7337;BME280;54510;42.016;23.098;2023-02-20T04:17:59;-21443.88;;;11.25;nan
7337;BME280;54510;42.016;23.098;2023-02-20T04:20:27;-21443.75;;;11.24;nan
7337;BME280;54510;42.016;23.098;2023-02-20T04:22:56;-21446.22;;;11.33;nan
7337;BME280;54510;42.016;23.098;2023-02-20T04:28:01;-21448.16;;;11.40;nan
7337;BME280;54510;42.016;23.098;2023-02-20T04:30:27;-21450.81;;;11.50;nan
7337;BME280;54510;42.016;23.098;2023-02-20T04:32:53;-21454.28;;;11.63;nan
7337;BME280;54510;42.016;23.098;2023-02-20T04:35:19;-21456.22;;;11.70;nan
7337;BME280;54510;42.016;23.098;2023-02-20T04:37:45;-21456.78;;;11.72;nan
7337;BME280;54510;42.016;23.098;2023-02-20T04:40:12;-21455.66;;;11.68;nan
7337;BME280;54510;42.016;23.098;2023-02-20T04:42:38;-21456.06;;;11.69;nan
7337;BME280;54510;42.016;23.098;2023-02-20T04:45:04;-21458.16;;;11.77;nan
7337;BME280;54510;42.016;23.098;2023-02-20T04:47:29;-21458.16;;;11.77;nan
7337;BME280;54510;42.016;23.098;2023-02-20T04:49:55;-21459.00;;;11.80;nan
7337;BME280;54510;42.016;23.098;2023-02-20T04:52:20;-21457.31;;;11.74;nan
7337;BME280;54510;42.016;23.098;2023-02-20T04:54:46;-21459.28;;;11.81;nan
7337;BME280;54510;42.016;23.098;2023-02-20T04:57:11;-21457.47;;;11.74;nan
7337;BME280;54510;42.016;23.098;2023-02-20T04:59:37;-21457.06;;;11.73;nan
7337;BME280;54510;42.016;23.098;2023-02-20T05:02:02;-21452.59;;;11.57;nan
7337;BME280;54510;42.016;23.098;2023-02-20T05:04:28;-21455.53;;;11.67;nan
7337;BME280;54510;42.016;23.098;2023-02-20T05:06:54;-21455.09;;;11.66;nan
7337;BME280;54510;42.016;23.098;2023-02-20T05:09:20;-21455.66;;;11.68;nan
7337;BME280;54510;42.016;23.098;2023-02-20T05:11:46;-21453.44;;;11.60;nan
7337;BME280;54510;42.016;23.098;2023-02-20T05:14:12;-21453.03;;;11.58;nan
7337;BME280;54510;42.016;23.098;2023-02-20T05:16:39;-21452.75;;;11.57;nan
7337;BME280;54510;42.016;23.098;2023-02-20T05:19:06;-21452.59;;;11.57;nan
7337;BME280;54510;42.016;23.098;2023-02-20T05:21:32;-21447.06;;;11.36;nan
7337;BME280;54510;42.016;23.098;2023-02-20T05:24:17;-21444.97;;;11.29;nan
7337;BME280;54510;42.016;23.098;2023-02-20T05:26:43;-21451.78;;;11.54;nan
7337;BME280;54510;42.016;23.098;2023-02-20T05:29:08;-21449.41;;;11.45;nan
7337;BME280;54510;42.016;23.098;2023-02-20T05:31:39;-21448.88;;;11.43;nan
7337;BME280;54510;42.016;23.098;2023-02-20T05:34:05;-21450.81;;;11.50;nan
7337;BME280;54510;42.016;23.098;2023-02-20T05:36:31;-21453.72;;;11.61;nan
7337;BME280;54510;42.016;23.098;2023-02-20T05:38:56;-21456.78;;;11.72;nan
7337;BME280;54510;42.016;23.098;2023-02-20T05:41:22;-21453.72;;;11.61;nan
7337;BME280;54510;42.016;23.098;2023-02-20T05:43:47;-21455.66;;;11.68;nan
7337;BME280;54510;42.016;23.098;2023-02-20T05:46:13;-21455.66;;;11.68;nan
7337;BME280;54510;42.016;23.098;2023-02-20T05:48:39;-21458.31;;;11.77;nan
7337;BME280;54510;42.016;23.098;2023-02-20T05:51:04;-21459.97;;;11.83;nan
7337;BME280;54510;42.016;23.098;2023-02-20T05:53:30;-21461.06;;;11.87;nan
7337;BME280;54510;42.016;23.098;2023-02-20T05:55:56;-21462.19;;;11.92;nan
7337;BME280;54510;42.016;23.098;2023-02-20T05:58:22;-21464.41;;;12.00;nan
7337;BME280;54510;42.016;23.098;2023-02-20T06:00:48;-21465.38;;;12.03;nan
7337;BME280;54510;42.016;23.098;2023-02-20T06:03:14;-21463.00;;;11.95;nan
7337;BME280;54510;42.016;23.098;2023-02-20T06:05:40;-21465.38;;;12.03;nan
7337;BME280;54510;42.016;23.098;2023-02-20T06:08:05;-21470.78;;;12.23;nan
7337;BME280;54510;42.016;23.098;2023-02-20T06:10:31;-21472.84;;;12.31;nan
7337;BME280;54510;42.016;23.098;2023-02-20T06:12:56;-21476.03;;;12.42;nan
7337;BME280;54510;42.016;23.098;2023-02-20T06:15:22;-21478.94;;;12.53;nan
7337;BME280;54510;42.016;23.098;2023-02-20T06:17:47;-21478.94;;;12.53;nan
7337;BME280;54510;42.016;23.098;2023-02-20T06:20:13;-21486.41;;;12.80;nan
7337;BME280;54510;42.016;23.098;2023-02-20T06:22:39;-21486.84;;;12.82;nan
7337;BME280;54510;42.016;23.098;2023-02-20T06:25:04;-21486.69;;;12.81;nan
7337;BME280;54510;42.016;23.098;2023-02-20T06:27:30;-21490.03;;;12.93;nan
7337;BME280;54510;42.016;23.098;2023-02-20T06:29:56;-21491.81;;;13.00;nan
7337;BME280;54510;42.016;23.098;2023-02-20T06:32:21;-21497.91;;;13.22;nan
7337;BME280;54510;42.016;23.098;2023-02-20T06:34:47;-21495.41;;;13.13;nan
7337;BME280;54510;42.016;23.098;2023-02-20T06:37:12;-21498.19;;;13.23;nan
7337;BME280;54510;42.016;23.098;2023-02-20T06:39:38;-21497.50;;;13.21;nan
7337;BME280;54510;42.016;23.098;2023-02-20T06:42:05;-21499.03;;;13.26;nan
7337;BME280;54510;42.016;23.098;2023-02-20T06:44:30;-21498.19;;;13.23;nan
7337;BME280;54510;42.016;23.098;2023-02-20T06:46:57;-21504.13;;;13.45;nan
7337;BME280;54510;42.016;23.098;2023-02-20T06:49:23;-21504.13;;;13.45;nan
7337;BME280;54510;42.016;23.098;2023-02-20T06:51:51;-21502.63;;;13.39;nan
7337;BME280;54510;42.016;23.098;2023-02-20T06:54:17;-21500.97;;;13.33;nan
7337;BME280;54510;42.016;23.098;2023-02-20T06:56:46;-21500.69;;;13.32;nan
7337;BME280;54510;42.016;23.098;2023-02-20T06:59:12;-21497.78;;;13.22;nan
7337;BME280;54510;42.016;23.098;2023-02-20T07:01:40;-21502.75;;;13.40;nan
7337;BME280;54510;42.016;23.098;2023-02-20T07:04:15;-21498.47;;;13.24;nan
7337;BME280;54510;42.016;23.098;2023-02-20T07:06:40;-21504.00;;;13.44;nan
7337;BME280;54510;42.016;23.098;2023-02-20T07:09:07;-21507.88;;;13.59;nan
7337;BME280;54510;42.016;23.098;2023-02-20T07:11:32;-21500.53;;;13.32;nan
7337;BME280;54510;42.016;23.098;2023-02-20T07:13:57;-21506.34;;;13.53;nan
7337;BME280;54510;42.016;23.098;2023-02-20T07:16:23;-21508.00;;;13.59;nan
7337;BME280;54510;42.016;23.098;2023-02-20T07:18:48;-21511.19;;;13.71;nan
7337;BME280;54510;42.016;23.098;2023-02-20T07:21:14;-21505.66;;;13.51;nan
7337;BME280;54510;42.016;23.098;2023-02-20T07:23:40;-21510.78;;;13.69;nan
7337;BME280;54510;42.016;23.098;2023-02-20T07:26:05;-21510.09;;;13.67;nan
7337;BME280;54510;42.016;23.098;2023-02-20T07:28:33;-21508.44;;;13.61;nan
7337;BME280;54510;42.016;23.098;2023-02-20T07:31:00;-21513.81;;;13.80;nan
7337;BME280;54510;42.016;23.098;2023-02-20T07:33:25;-21523.91;;;14.17;nan
7337;BME280;54510;42.016;23.098;2023-02-20T07:35:50;-21522.41;;;14.12;nan
7337;BME280;54510;42.016;23.098;2023-02-20T07:38:16;-21515.19;;;13.85;nan
7337;BME280;54510;42.016;23.098;2023-02-20T07:40:41;-21513.53;;;13.79;nan
7337;BME280;54510;42.016;23.098;2023-02-20T07:43:07;-21511.06;;;13.70;nan
7337;BME280;54510;42.016;23.098;2023-02-20T07:45:32;-21513.00;;;13.77;nan
7337;BME280;54510;42.016;23.098;2023-02-20T07:47:58;-21511.59;;;13.72;nan
7337;BME280;54510;42.016;23.098;2023-02-20T07:50:23;-21514.38;;;13.82;nan
7337;BME280;54510;42.016;23.098;2023-02-20T07:52:48;-21512.84;;;13.77;nan
7337;BME280;54510;42.016;23.098;2023-02-20T07:55:15;-21520.47;;;14.05;nan
7337;BME280;54510;42.016;23.098;2023-02-20T07:57:41;-21520.19;;;14.04;nan
7337;BME280;54510;42.016;23.098;2023-02-20T08:00:07;-21515.19;;;13.85;nan
7337;BME280;54510;42.016;23.098;2023-02-20T08:02:33;-21519.34;;;14.01;nan
7337;BME280;54510;42.016;23.098;2023-02-20T08:04:58;-21516.59;;;13.91;nan
7337;BME280;54510;42.016;23.098;2023-02-20T08:07:24;-21519.50;;;14.01;nan
7337;BME280;54510;42.016;23.098;2023-02-20T08:09:50;-21516.88;;;13.92;nan
7337;BME280;54510;42.016;23.098;2023-02-20T08:12:15;-21519.91;;;14.03;nan
7337;BME280;54510;42.016;23.098;2023-02-20T08:14:40;-21515.47;;;13.87;nan
7337;BME280;54510;42.016;23.098;2023-02-20T08:17:06;-21522.94;;;14.14;nan
7337;BME280;54510;42.016;23.098;2023-02-20T08:19:31;-21523.22;;;14.15;nan
7337;BME280;54510;42.016;23.098;2023-02-20T08:21:57;-21522.13;;;14.11;nan
7337;BME280;54510;42.016;23.098;2023-02-20T08:24:22;-21530.41;;;14.41;nan
7337;BME280;54510;42.016;23.098;2023-02-20T08:26:48;-21530.53;;;14.42;nan
7337;BME280;54510;42.016;23.098;2023-02-20T08:29:15;-21525.72;;;14.24;nan
7337;BME280;54510;42.016;23.098;2023-02-20T08:31:41;-21527.09;;;14.29;nan
7337;BME280;54510;42.016;23.098;2023-02-20T08:34:06;-21532.91;;;14.50;nan
7337;BME280;54510;42.016;23.098;2023-02-20T08:36:32;-21537.03;;;14.66;nan
7337;BME280;54510;42.016;23.098;2023-02-20T08:38:58;-21537.31;;;14.67;nan
7337;BME280;54510;42.016;23.098;2023-02-20T08:41:24;-21539.81;;;14.76;nan
7337;BME280;54510;42.016;23.098;2023-02-20T08:43:50;-21541.47;;;14.82;nan
7337;BME280;54510;42.016;23.098;2023-02-20T08:46:15;-21542.97;;;14.87;nan
7337;BME280;54510;42.016;23.098;2023-02-20T08:48:41;-21531.09;;;14.44;nan
7337;BME280;54510;42.016;23.098;2023-02-20T08:51:08;-21537.44;;;14.67;nan
7337;BME280;54510;42.016;23.098;2023-02-20T08:53:33;-21547.13;;;15.02;nan
7337;BME280;54510;42.016;23.098;2023-02-20T08:55:59;-21549.59;;;15.12;nan
7337;BME280;54510;42.016;23.098;2023-02-20T08:58:25;-21559.28;;;15.47;nan
7337;BME280;54510;42.016;23.098;2023-02-20T09:00:51;-21557.19;;;15.39;nan
7337;BME280;54510;42.016;23.098;2023-02-20T09:03:17;-21549.59;;;15.12;nan
7337;BME280;54510;42.016;23.098;2023-02-20T09:05:42;-21545.31;;;14.96;nan
7337;BME280;54510;42.016;23.098;2023-02-20T09:08:08;-21549.19;;;15.10;nan
7337;BME280;54510;42.016;23.098;2023-02-20T09:10:34;-21553.06;;;15.24;nan
7337;BME280;54510;42.016;23.098;2023-02-20T09:13:00;-21545.75;;;14.97;nan
7337;BME280;54510;42.016;23.098;2023-02-20T09:15:26;-21551.13;;;15.17;nan
7337;BME280;54510;42.016;23.098;2023-02-20T09:17:52;-21550.84;;;15.16;nan
7337;BME280;54510;42.016;23.098;2023-02-20T09:20:20;-21562.59;;;15.59;nan
7337;BME280;54510;42.016;23.098;2023-02-20T09:22:46;-21558.44;;;15.44;nan
7337;BME280;54510;42.016;23.098;2023-02-20T09:25:12;-21554.03;;;15.28;nan
7337;BME280;54510;42.016;23.098;2023-02-20T09:27:38;-21551.53;;;15.19;nan
7337;BME280;54510;42.016;23.098;2023-02-20T09:30:04;-21559.13;;;15.47;nan
7337;BME280;54510;42.016;23.098;2023-02-20T09:32:30;-21561.06;;;15.54;nan
7337;BME280;54510;42.016;23.098;2023-02-20T09:34:55;-21560.22;;;15.51;nan
7337;BME280;54510;42.016;23.098;2023-02-20T09:37:22;-21559.94;;;15.50;nan
7337;BME280;54510;42.016;23.098;2023-02-20T09:39:48;-21557.47;;;15.40;nan
7337;BME280;54510;42.016;23.098;2023-02-20T09:42:25;-21563.53;;;15.63;nan
7337;BME280;54510;42.016;23.098;2023-02-20T09:45:18;-21566.84;;;15.75;nan
7337;BME280;54510;42.016;23.098;2023-02-20T09:47:55;-21569.34;;;15.84;nan
7337;BME280;54510;42.016;23.098;2023-02-20T09:50:43;-21581.34;;;16.28;nan
7337;BME280;54510;42.016;23.098;2023-02-20T09:55:59;-21592.22;;;16.68;nan
7337;BME280;54510;42.016;23.098;2023-02-20T09:58:46;-21582.56;;;16.33;nan
7337;BME280;54510;42.016;23.098;2023-02-20T10:01:18;-21592.09;;;16.68;nan
7337;BME280;54510;42.016;23.098;2023-02-20T10:03:51;-21576.50;;;16.10;nan
7337;BME280;54510;42.016;23.098;2023-02-20T10:06:20;-21583.94;;;16.38;nan
7337;BME280;54510;42.016;23.098;2023-02-20T10:08:49;-21577.47;;;16.14;nan
7337;BME280;54510;42.016;23.098;2023-02-20T10:11:31;-21578.44;;;16.17;nan
7337;BME280;54510;42.016;23.098;2023-02-20T10:16:44;-21585.34;;;16.43;nan
7337;BME280;54510;42.016;23.098;2023-02-20T10:20:22;-21588.38;;;16.54;nan
7337;BME280;54510;42.016;23.098;2023-02-20T10:22:27;-21580.22;;;16.24;nan
7337;BME280;54510;42.016;23.098;2023-02-20T10:25:15;-21585.75;;;16.44;nan
7337;BME280;54510;42.016;23.098;2023-02-20T10:27:55;-21586.97;;;16.49;nan
7337;BME280;54510;42.016;23.098;2023-02-20T10:30:37;-21575.13;;;16.05;nan
7337;BME280;54510;42.016;23.098;2023-02-20T10:33:35;-21575.69;;;16.07;nan
7337;BME280;54510;42.016;23.098;2023-02-20T10:38:34;-21583.69;;;16.37;nan
7337;BME280;54510;42.016;23.098;2023-02-20T10:44:00;-21580.09;;;16.24;nan
7337;BME280;54510;42.016;23.098;2023-02-20T10:46:45;-21580.09;;;16.24;nan
7337;BME280;54510;42.016;23.098;2023-02-20T10:49:34;-21583.00;;;16.34;nan
7337;BME280;54510;42.016;23.098;2023-02-20T10:52:04;-21576.09;;;16.09;nan
7337;BME280;54510;42.016;23.098;2023-02-20T10:54:52;-21581.88;;;16.30;nan
7337;BME280;54510;42.016;23.098;2023-02-20T10:57:35;-21574.03;;;16.01;nan
7337;BME280;54510;42.016;23.098;2023-02-20T11:00:10;-21584.22;;;16.39;nan
7337;BME280;54510;42.016;23.098;2023-02-20T11:02:44;-21590.16;;;16.61;nan
7337;BME280;54510;42.016;23.098;2023-02-20T11:05:15;-21590.28;;;16.61;nan
7337;BME280;54510;42.016;23.098;2023-02-20T11:07:42;-21592.09;;;16.68;nan
7337;BME280;54510;42.016;23.098;2023-02-20T11:10:08;-21595.25;;;16.79;nan
7337;BME280;54510;42.016;23.098;2023-02-20T11:15:07;-21584.22;;;16.39;nan
7337;BME280;54510;42.016;23.098;2023-02-20T11:17:34;-21588.91;;;16.56;nan
7337;BME280;54510;42.016;23.098;2023-02-20T11:20:03;-21589.06;;;16.56;nan
7337;BME280;54510;42.016;23.098;2023-02-20T11:22:47;-21587.66;;;16.51;nan
7337;BME280;54510;42.016;23.098;2023-02-20T11:25:18;-21583.13;;;16.35;nan
7337;BME280;54510;42.016;23.098;2023-02-20T11:27:49;-21584.38;;;16.39;nan
7337;BME280;54510;42.016;23.098;2023-02-20T11:30:34;-21578.16;;;16.16;nan
7337;BME280;54510;42.016;23.098;2023-02-20T11:35:34;-21588.22;;;16.53;nan
7337;BME280;54510;42.016;23.098;2023-02-20T11:43:33;-21586.97;;;16.49;nan
7337;BME280;54510;42.016;23.098;2023-02-20T11:48:32;-21597.72;;;16.88;nan
7337;BME280;54510;42.016;23.098;2023-02-20T11:50:57;-21602.81;;;17.07;nan
7337;BME280;54510;42.016;23.098;2023-02-20T11:58:35;-21595.38;;;16.80;nan
7337;BME280;54510;42.016;23.098;2023-02-20T12:01:01;-21606.69;;;17.21;nan
7337;BME280;54510;42.016;23.098;2023-02-20T12:03:28;-21607.38;;;17.24;nan
7337;BME280;54510;42.016;23.098;2023-02-20T12:05:55;-21598.97;;;16.93;nan
7337;BME280;54510;42.016;23.098;2023-02-20T12:10:54;-21599.53;;;16.95;nan
7337;BME280;54510;42.016;23.098;2023-02-20T12:13:24;-21602.97;;;17.08;nan
7337;BME280;54510;42.016;23.098;2023-02-20T12:21:38;-21608.06;;;17.26;nan
7337;BME280;54510;42.016;23.098;2023-02-20T12:24:52;-21604.63;;;17.14;nan
7337;BME280;54510;42.016;23.098;2023-02-20T12:37:49;-21612.06;;;17.41;nan
7337;BME280;54510;42.016;23.098;2023-02-20T12:43:17;-21612.31;;;17.42;nan
7337;BME280;54510;42.016;23.098;2023-02-20T12:45:49;-21617.97;;;17.63;nan
7337;BME280;54510;42.016;23.098;2023-02-20T12:50:58;-21611.38;;;17.38;nan
7337;BME280;54510;42.016;23.098;2023-02-20T12:56:31;-21602.00;;;17.04;nan
7337;BME280;54510;42.016;23.098;2023-02-20T12:59:30;-21605.16;;;17.16;nan
7337;BME280;54510;42.016;23.098;2023-02-20T13:02:13;-21597.88;;;16.89;nan
7337;BME280;54510;42.016;23.098;2023-02-20T13:04:52;-21593.88;;;16.74;nan
7337;BME280;54510;42.016;23.098;2023-02-20T13:07:23;-21594.28;;;16.76;nan
7337;BME280;54510;42.016;23.098;2023-02-20T13:10:04;-21595.13;;;16.79;nan
7337;BME280;54510;42.016;23.098;2023-02-20T13:12:31;-21595.38;;;16.80;nan
7337;BME280;54510;42.016;23.098;2023-02-20T13:20:52;-21588.91;;;16.56;nan
7337;BME280;54510;42.016;23.098;2023-02-20T13:25:45;-21585.88;;;16.45;nan
7337;BME280;54510;42.016;23.098;2023-02-20T13:30:37;-21582.28;;;16.32;nan
7337;BME280;54510;42.016;23.098;2023-02-20T13:33:24;-21586.16;;;16.46;nan
7337;BME280;54510;42.016;23.098;2023-02-20T13:35:53;-21590.03;;;16.60;nan
7337;BME280;54510;42.016;23.098;2023-02-20T13:38:21;-21587.53;;;16.51;nan
7337;BME280;54510;42.016;23.098;2023-02-20T13:45:48;-21579.53;;;16.22;nan
7337;BME280;54510;42.016;23.098;2023-02-20T13:50:45;-21580.78;;;16.26;nan
7337;BME280;54510;42.016;23.098;2023-02-20T13:53:10;-21593.59;;;16.73;nan
7337;BME280;54510;42.016;23.098;2023-02-20T13:55:36;-21596.22;;;16.83;nan
7337;BME280;54510;42.016;23.098;2023-02-20T13:58:08;-21583.81;;;16.37;nan
7337;BME280;54510;42.016;23.098;2023-02-20T14:03:29;-21595.13;;;16.79;nan
7337;BME280;54510;42.016;23.098;2023-02-20T14:08:37;-21584.78;;;16.41;nan
7337;BME280;54510;42.016;23.098;2023-02-20T14:11:11;-21584.78;;;16.41;nan
7337;BME280;54510;42.016;23.098;2023-02-20T14:13:39;-21594.44;;;16.76;nan
7337;BME280;54510;42.016;23.098;2023-02-20T14:16:27;-21586.97;;;16.49;nan
7337;BME280;54510;42.016;23.098;2023-02-20T14:19:05;-21576.50;;;16.10;nan
7337;BME280;54510;42.016;23.098;2023-02-20T14:21:34;-21587.94;;;16.52;nan
7337;BME280;54510;42.016;23.098;2023-02-20T14:24:19;-21581.34;;;16.28;nan
7337;BME280;54510;42.016;23.098;2023-02-20T14:26:46;-21580.50;;;16.25;nan
7337;BME280;54510;42.016;23.098;2023-02-20T14:31:44;-21578.16;;;16.16;nan
7337;BME280;54510;42.016;23.098;2023-02-20T14:34:35;-21573.34;;;15.99;nan
7337;BME280;54510;42.016;23.098;2023-02-20T14:40:00;-21589.59;;;16.58;nan
7337;BME280;54510;42.016;23.098;2023-02-20T14:42:27;-21593.06;;;16.71;nan
7337;BME280;54510;42.016;23.098;2023-02-20T14:45:06;-21586.56;;;16.47;nan
7337;BME280;54510;42.016;23.098;2023-02-20T14:47:32;-21591.66;;;16.66;nan
7337;BME280;54510;42.016;23.098;2023-02-20T14:50:26;-21590.56;;;16.62;nan
7337;BME280;54510;42.016;23.098;2023-02-20T14:55:39;-21590.44;;;16.62;nan
7337;BME280;54510;42.016;23.098;2023-02-20T14:58:16;-21589.31;;;16.57;nan
7337;BME280;54510;42.016;23.098;2023-02-20T15:00:44;-21585.06;;;16.42;nan
7337;BME280;54510;42.016;23.098;2023-02-20T15:05:43;-21599.66;;;16.95;nan
7337;BME280;54510;42.016;23.098;2023-02-20T15:10:49;-21578.84;;;16.19;nan
7337;BME280;54510;42.016;23.098;2023-02-20T15:13:18;-21578.44;;;16.17;nan
7337;BME280;54510;42.016;23.098;2023-02-20T15:15:49;-21572.50;;;15.96;nan
7337;BME280;54510;42.016;23.098;2023-02-20T15:18:31;-21570.72;;;15.89;nan
7337;BME280;54510;42.016;23.098;2023-02-20T15:20:57;-21575.97;;;16.08;nan